Time;durP1;ratioP1;P1;durP2;ratioP2;P2;SDS_P1;SDS_P2;PMS_P1;PMS_P2;Temp;Humidity;BMP_temperature;BMP_pressure;BME280_temperature;BME280_humidity;BME280_pressure;Samples;Min_cycle;Max_cycle;Signal;HPM_P1;HPM_P2
2021/09/02 00:01:56;;;;;;;;;;;20.10;72.90;;;;;;5104623;28;20292;-63
2021/09/02 00:04:22;;;;;;;;;;;20.10;72.90;;;;;;5104912;28;19912;-60
2021/09/02 00:06:48;;;;;;;;;;;20.10;72.90;;;;;;5104554;28;20330;-60
2021/09/02 00:09:13;;;;;;;;;;;20.10;72.90;;;;;;5103905;28;19950;-61
2021/09/02 00:11:38;;;;;;;;;;;20.10;72.90;;;;;;5096388;28;19916;-61
2021/09/02 00:14:04;;;;;;;;;;;20.10;72.90;;;;;;5093676;28;20403;-59
2021/09/02 00:16:29;;;;;;;;;;;20.10;72.90;;;;;;5088496;28;20013;-60
2021/09/02 00:18:55;;;;;;;;;;;20.10;72.80;;;;;;5100326;28;20036;-59
2021/09/02 00:21:20;;;;;;;;;;;20.10;72.80;;;;;;5105216;28;19907;-59
2021/09/02 00:23:47;;;;;;;;;;;20.10;72.80;;;;;;5086492;28;19916;-62
2021/09/02 00:26:12;;;;;;;;;;;20.10;72.90;;;;;;5106408;28;19947;-60
2021/09/02 00:28:37;;;;;;;;;;;20.00;72.80;;;;;;5088590;28;19993;-63
2021/09/02 00:31:03;;;;;;;;;;;20.10;72.70;;;;;;5087587;28;20664;-59
2021/09/02 00:33:28;;;;;;;;;;;20.10;72.70;;;;;;5089138;28;19923;-58
2021/09/02 00:35:54;;;;;;;;;;;20.10;72.70;;;;;;5102921;28;19911;-63
2021/09/02 00:38:19;;;;;;;;;;;20.10;72.60;;;;;;5087792;28;19911;-59
2021/09/02 00:40:45;;;;;;;;;;;20.10;72.60;;;;;;5104361;28;20284;-59
2021/09/02 00:43:10;;;;;;;;;;;20.10;72.60;;;;;;5073262;28;19912;-60
2021/09/02 00:45:36;;;;;;;;;;;20.10;72.60;;;;;;5103565;28;19916;-60
2021/09/02 00:48:01;;;;;;;;;;;20.10;72.50;;;;;;5073031;28;19918;-60
2021/09/02 00:50:27;;;;;;;;;;;20.10;72.50;;;;;;5101277;28;19912;-59
2021/09/02 00:52:52;;;;;;;;;;;20.10;72.50;;;;;;5091394;28;20590;-60
2021/09/02 00:55:18;;;;;;;;;;;20.10;72.40;;;;;;5082709;28;19918;-64
2021/09/02 00:57:43;;;;;;;;;;;20.10;72.40;;;;;;5107187;28;20367;-62
2021/09/02 01:00:09;;;;;;;;;;;20.10;72.40;;;;;;5086162;28;19912;-60
2021/09/02 01:02:35;;;;;;;;;;;20.10;72.40;;;;;;5105929;28;19987;-64
2021/09/02 01:05:00;;;;;;;;;;;20.10;72.30;;;;;;5087188;28;19921;-63
2021/09/02 01:07:26;;;;;;;;;;;20.10;72.30;;;;;;5087586;28;19904;-64
2021/09/02 01:09:54;;;;;;;;;;;20.10;72.30;;;;;;5058209;28;19916;-63
2021/09/02 01:12:24;;;;;;;;;;;20.10;72.30;;;;;;5087012;28;20396;-60
2021/09/02 01:14:50;;;;;;;;;;;20.10;72.20;;;;;;5072373;28;20369;-62
2021/09/02 01:17:15;;;;;;;;;;;20.10;72.20;;;;;;5104989;28;19975;-59
2021/09/02 01:19:40;;;;;;;;;;;20.10;72.30;;;;;;5088074;28;19978;-60
2021/09/02 01:22:06;;;;;;;;;;;20.10;72.20;;;;;;5103426;28;19912;-58
2021/09/02 01:24:31;;;;;;;;;;;20.10;72.20;;;;;;5090078;28;19912;-59
2021/09/02 01:26:57;;;;;;;;;;;20.10;72.20;;;;;;5102893;28;20304;-60
2021/09/02 01:29:22;;;;;;;;;;;20.10;72.10;;;;;;5091351;28;19912;-61
2021/09/02 01:31:48;;;;;;;;;;;20.10;72.10;;;;;;5100538;28;19916;-62
2021/09/02 01:34:16;;;;;;;;;;;20.10;72.10;;;;;;5087868;28;19908;-64
2021/09/02 01:36:41;;;;;;;;;;;20.10;72.10;;;;;;5085824;28;20435;-63
2021/09/02 01:39:07;;;;;;;;;;;20.10;72.10;;;;;;5105367;28;19908;-63
2021/09/02 01:41:32;;;;;;;;;;;20.10;72.10;;;;;;5085410;28;20819;-64
2021/09/02 01:43:58;;;;;;;;;;;20.10;72.00;;;;;;5104995;28;19908;-64
2021/09/02 01:46:23;;;;;;;;;;;20.10;72.00;;;;;;5069650;28;19916;-60
2021/09/02 01:48:49;;;;;;;;;;;20.10;72.00;;;;;;5104270;28;20696;-59
2021/09/02 01:51:14;;;;;;;;;;;20.10;71.90;;;;;;5086269;28;19919;-61
2021/09/02 01:53:40;;;;;;;;;;;20.10;71.90;;;;;;5100573;28;19916;-61
2021/09/02 01:56:05;;;;;;;;;;;20.10;71.90;;;;;;5070576;28;19923;-60
2021/09/02 01:58:31;;;;;;;;;;;20.10;71.90;;;;;;5101169;28;19965;-59
2021/09/02 02:00:57;;;;;;;;;;;20.10;71.90;;;;;;5088536;28;19912;-60
2021/09/02 02:03:22;;;;;;;;;;;20.10;71.80;;;;;;5084698;28;19912;-60
2021/09/02 02:05:48;;;;;;;;;;;20.10;71.80;;;;;;5089694;28;19937;-59
2021/09/02 02:08:14;;;;;;;;;;;20.10;71.90;;;;;;5102081;28;20600;-60
2021/09/02 02:10:39;;;;;;;;;;;20.10;71.90;;;;;;5105125;28;20035;-60
2021/09/02 02:13:05;;;;;;;;;;;20.10;71.80;;;;;;5086060;28;19930;-60
2021/09/02 02:15:30;;;;;;;;;;;20.10;71.70;;;;;;5089327;28;19904;-59
2021/09/02 02:17:56;;;;;;;;;;;20.10;71.70;;;;;;5094104;27;19916;-56
2021/09/02 02:20:22;;;;;;;;;;;20.10;71.70;;;;;;5111410;28;20425;-57
2021/09/02 02:22:47;;;;;;;;;;;20.10;71.70;;;;;;5065035;27;19954;-62
2021/09/02 02:25:13;;;;;;;;;;;20.10;71.70;;;;;;5108579;27;19922;-59
2021/09/02 02:27:38;;;;;;;;;;;20.10;71.70;;;;;;5109496;27;19912;-58
2021/09/02 02:30:04;;;;;;;;;;;20.10;71.60;;;;;;5110643;27;19919;-60
2021/09/02 02:32:30;;;;;;;;;;;20.10;71.50;;;;;;5095486;27;19916;-60
2021/09/02 02:34:55;;;;;;;;;;;20.10;71.60;;;;;;5109645;28;20345;-59
2021/09/02 02:37:20;;;;;;;;;;;20.10;71.50;;;;;;5095417;27;19923;-60
2021/09/02 02:39:46;;;;;;;;;;;20.10;71.50;;;;;;5107739;27;19958;-61
2021/09/02 02:42:11;;;;;;;;;;;20.10;71.50;;;;;;5094117;27;19938;-59
2021/09/02 02:44:37;;;;;;;;;;;20.10;71.50;;;;;;5109146;27;19912;-59
2021/09/02 02:47:03;;;;;;;;;;;20.10;71.50;;;;;;5097383;27;19912;-61
2021/09/02 02:49:28;;;;;;;;;;;20.00;71.40;;;;;;5107462;27;19922;-57
2021/09/02 02:51:54;;;;;;;;;;;20.10;71.40;;;;;;5111045;28;20361;-63
2021/09/02 02:54:19;;;;;;;;;;;20.10;71.40;;;;;;5092231;27;19992;-60
2021/09/02 02:56:44;;;;;;;;;;;20.00;71.30;;;;;;5111304;28;20383;-62
2021/09/02 02:59:10;;;;;;;;;;;20.10;71.30;;;;;;5099511;27;19926;-60
2021/09/02 03:01:36;;;;;;;;;;;20.10;71.30;;;;;;5111142;27;19911;-62
2021/09/02 03:04:01;;;;;;;;;;;20.10;71.30;;;;;;5076712;28;19912;-62
2021/09/02 03:06:27;;;;;;;;;;;20.10;71.30;;;;;;5090801;28;20045;-62
2021/09/02 03:08:52;;;;;;;;;;;20.00;71.30;;;;;;5093871;27;19916;-61
2021/09/02 03:11:18;;;;;;;;;;;20.00;71.30;;;;;;5109735;27;19957;-59
2021/09/02 03:13:43;;;;;;;;;;;20.00;71.30;;;;;;5077381;28;19919;-59
2021/09/02 03:16:09;;;;;;;;;;;20.10;71.30;;;;;;5107197;27;19916;-60
2021/09/02 03:18:34;;;;;;;;;;;20.10;71.30;;;;;;5095724;27;19919;-63
2021/09/02 03:21:00;;;;;;;;;;;20.10;71.20;;;;;;5107177;27;19955;-61
2021/09/02 03:23:25;;;;;;;;;;;20.10;71.80;;;;;;5078359;27;19908;-59
2021/09/02 03:25:51;;;;;;;;;;;20.10;71.20;;;;;;5107488;27;19911;-60
2021/09/02 03:28:16;;;;;;;;;;;20.00;71.20;;;;;;5107054;28;19907;-59
2021/09/02 03:30:41;;;;;;;;;;;20.00;71.20;;;;;;5086274;28;19992;-59
2021/09/02 03:33:07;;;;;;;;;;;20.00;71.10;;;;;;5108058;28;19959;-61
2021/09/02 03:35:32;;;;;;;;;;;20.10;71.10;;;;;;5083734;27;19926;-62
2021/09/02 03:37:58;;;;;;;;;;;20.00;71.10;;;;;;5107814;28;19908;-59
2021/09/02 03:40:23;;;;;;;;;;;20.00;71.10;;;;;;5079181;28;19919;-60
2021/09/02 03:42:49;;;;;;;;;;;20.00;71.10;;;;;;5089838;28;19912;-59
2021/09/02 03:45:14;;;;;;;;;;;20.00;71.10;;;;;;5090516;28;20069;-61
2021/09/02 03:47:44;;;;;;;;;;;20.00;71.00;;;;;;5105970;28;19912;-60
2021/09/02 03:50:10;;;;;;;;;;;20.00;71.00;;;;;;5071575;28;19916;-60
2021/09/02 03:52:35;;;;;;;;;;;20.00;71.00;;;;;;5099905;22;19985;-59
2021/09/02 03:55:01;;;;;;;;;;;20.00;71.00;;;;;;5072276;28;19965;-51
2021/09/02 03:57:26;;;;;;;;;;;20.00;71.00;;;;;;5088248;28;19916;-57
2021/09/02 03:59:52;;;;;;;;;;;20.00;70.90;;;;;;5084196;28;19912;-62
2021/09/02 04:02:17;;;;;;;;;;;20.00;71.00;;;;;;5068793;28;20335;-58
2021/09/02 04:04:42;;;;;;;;;;;20.00;70.90;;;;;;5062118;28;19920;-60
2021/09/02 04:07:08;;;;;;;;;;;20.00;70.80;;;;;;5083072;28;19968;-61
2021/09/02 04:09:33;;;;;;;;;;;20.00;70.90;;;;;;5077234;28;20433;-62
2021/09/02 04:11:59;;;;;;;;;;;20.00;70.80;;;;;;5078992;28;19924;-57
2021/09/02 04:14:24;;;;;;;;;;;20.00;70.80;;;;;;5075415;28;19913;-63
2021/09/02 04:16:50;;;;;;;;;;;20.00;70.70;;;;;;5081434;28;19917;-62
2021/09/02 04:19:15;;;;;;;;;;;20.00;70.70;;;;;;5078129;28;19968;-58
2021/09/02 04:21:41;;;;;;;;;;;20.00;70.70;;;;;;5067138;28;20198;-64
2021/09/02 04:24:06;;;;;;;;;;;20.00;70.70;;;;;;5078604;28;19916;-60
2021/09/02 04:26:31;;;;;;;;;;;20.00;70.70;;;;;;5063926;28;19913;-60
2021/09/02 04:28:57;;;;;;;;;;;20.00;70.70;;;;;;5081762;28;20393;-60
2021/09/02 04:31:23;;;;;;;;;;;20.00;70.80;;;;;;5077343;28;19948;-61
2021/09/02 04:33:48;;;;;;;;;;;20.00;70.80;;;;;;5075219;28;19912;-60
2021/09/02 04:36:13;;;;;;;;;;;20.00;70.80;;;;;;5071516;28;19916;-61
2021/09/02 04:38:39;;;;;;;;;;;20.00;70.80;;;;;;5064372;28;19916;-60
2021/09/02 04:41:04;;;;;;;;;;;20.00;70.80;;;;;;5086318;28;20365;-62
2021/09/02 04:43:30;;;;;;;;;;;20.00;70.80;;;;;;5066990;28;20356;-56
2021/09/02 04:45:55;;;;;;;;;;;20.00;70.70;;;;;;5076756;28;19916;-55
2021/09/02 04:48:21;;;;;;;;;;;20.00;70.80;;;;;;5070445;28;19912;-55
2021/09/02 04:50:47;;;;;;;;;;;19.90;70.80;;;;;;5070312;28;19916;-57
2021/09/02 04:53:12;;;;;;;;;;;20.00;70.90;;;;;;5063330;28;20606;-57
2021/09/02 04:55:38;;;;;;;;;;;19.90;70.80;;;;;;5075570;28;19987;-56
2021/09/02 04:58:04;;;;;;;;;;;19.90;70.70;;;;;;5073135;28;19912;-55
2021/09/02 05:00:29;;;;;;;;;;;19.90;70.80;;;;;;5064495;28;19916;-56
2021/09/02 05:02:55;;;;;;;;;;;19.90;70.70;;;;;;5072364;28;19986;-62
2021/09/02 05:05:21;;;;;;;;;;;19.90;70.60;;;;;;5062894;28;19919;-53
2021/09/02 05:07:47;;;;;;;;;;;19.90;70.60;;;;;;5075140;28;19915;-60
2021/09/02 05:10:12;;;;;;;;;;;19.90;70.50;;;;;;5066669;28;19921;-54
2021/09/02 05:12:38;;;;;;;;;;;20.00;70.60;;;;;;5069463;28;20387;-55
2021/09/02 05:15:04;;;;;;;;;;;19.90;70.80;;;;;;5070782;28;19927;-58
2021/09/02 05:17:29;;;;;;;;;;;19.90;71.00;;;;;;5064567;28;19925;-60
2021/09/02 05:19:55;;;;;;;;;;;19.90;71.10;;;;;;5066596;28;20504;-55
2021/09/02 05:22:20;;;;;;;;;;;19.90;71.10;;;;;;5074110;28;19935;-57
2021/09/02 05:24:45;;;;;;;;;;;19.90;71.20;;;;;;5072303;28;19912;-61
2021/09/02 05:27:11;;;;;;;;;;;19.90;71.20;;;;;;5074904;28;19913;-52
2021/09/02 05:29:36;;;;;;;;;;;19.90;71.20;;;;;;5080713;28;20284;-58
2021/09/02 05:32:02;;;;;;;;;;;19.90;71.20;;;;;;5063598;28;19923;-62
2021/09/02 05:34:27;;;;;;;;;;;19.90;71.20;;;;;;5066326;28;19921;-61
2021/09/02 05:36:53;;;;;;;;;;;19.90;71.30;;;;;;5076251;28;19916;-60
2021/09/02 05:39:18;;;;;;;;;;;19.90;71.40;;;;;;5079331;28;19977;-55
2021/09/02 05:41:44;;;;;;;;;;;19.90;71.40;;;;;;5067153;28;19919;-53
2021/09/02 05:44:11;;;;;;;;;;;19.90;71.40;;;;;;5081621;28;19916;-57
2021/09/02 05:46:37;;;;;;;;;;;19.90;71.50;;;;;;5066711;28;19919;-56
2021/09/02 05:49:03;;;;;;;;;;;19.90;71.50;;;;;;5067898;28;19912;-57
2021/09/02 05:51:28;;;;;;;;;;;19.90;71.40;;;;;;5080755;28;20432;-60
2021/09/02 05:53:54;;;;;;;;;;;19.90;71.30;;;;;;5070270;28;19936;-56
2021/09/02 05:56:19;;;;;;;;;;;19.90;71.30;;;;;;5075706;28;19942;-58
2021/09/02 05:58:45;;;;;;;;;;;19.90;71.20;;;;;;5072797;28;19912;-58
2021/09/02 06:01:10;;;;;;;;;;;19.80;71.10;;;;;;5073531;28;19916;-54
2021/09/02 06:03:36;;;;;;;;;;;19.90;71.20;;;;;;5072103;28;19912;-55
2021/09/02 06:06:01;;;;;;;;;;;19.90;71.10;;;;;;5076951;28;19962;-60
2021/09/02 06:08:26;;;;;;;;;;;19.80;71.00;;;;;;5070453;28;19913;-57
2021/09/02 06:10:52;;;;;;;;;;;19.90;71.10;;;;;;5064276;28;20388;-58
2021/09/02 06:13:17;;;;;;;;;;;19.80;71.00;;;;;;5063367;28;19920;-62
2021/09/02 06:15:43;;;;;;;;;;;19.80;71.00;;;;;;5067162;28;19919;-62
2021/09/02 06:18:08;;;;;;;;;;;19.80;71.00;;;;;;5060932;28;19916;-59
2021/09/02 06:20:34;;;;;;;;;;;19.80;71.00;;;;;;5067737;28;19922;-55
2021/09/02 06:22:59;;;;;;;;;;;19.80;71.00;;;;;;5070077;28;19916;-61
2021/09/02 06:25:25;;;;;;;;;;;19.80;71.00;;;;;;5067498;28;19917;-56
2021/09/02 06:27:50;;;;;;;;;;;19.80;71.00;;;;;;5061186;28;19913;-57
2021/09/02 06:30:15;;;;;;;;;;;19.80;71.00;;;;;;5069734;28;19969;-58
2021/09/02 06:32:41;;;;;;;;;;;19.80;71.10;;;;;;5072049;28;19920;-61
2021/09/02 06:35:07;;;;;;;;;;;19.80;71.20;;;;;;5071038;28;20052;-59
2021/09/02 06:37:32;;;;;;;;;;;19.80;71.10;;;;;;5077041;28;19912;-60
2021/09/02 06:39:57;;;;;;;;;;;19.80;71.20;;;;;;5081221;28;19913;-59
2021/09/02 06:42:23;;;;;;;;;;;19.80;71.20;;;;;;5078747;28;19916;-59
2021/09/02 06:44:48;;;;;;;;;;;19.80;71.20;;;;;;5071130;28;20387;-57
2021/09/02 06:47:14;;;;;;;;;;;19.80;71.20;;;;;;5065173;28;19966;-62
2021/09/02 06:49:39;;;;;;;;;;;19.80;71.20;;;;;;5078027;28;19919;-61
2021/09/02 06:52:05;;;;;;;;;;;19.80;71.20;;;;;;5080511;28;20488;-55
2021/09/02 06:54:30;;;;;;;;;;;19.80;71.20;;;;;;5070034;28;19916;-59
2021/09/02 06:56:56;;;;;;;;;;;19.80;71.30;;;;;;5069161;28;19912;-61
2021/09/02 06:59:21;;;;;;;;;;;19.80;71.40;;;;;;5063460;28;19931;-60
2021/09/02 07:01:47;;;;;;;;;;;19.80;71.40;;;;;;5071719;28;20461;-62
2021/09/02 07:04:13;;;;;;;;;;;19.80;71.40;;;;;;5075526;28;19913;-63
2021/09/02 07:06:38;;;;;;;;;;;19.80;71.40;;;;;;5068822;28;19913;-59
2021/09/02 07:09:04;;;;;;;;;;;19.80;71.50;;;;;;5081176;28;19912;-59
2021/09/02 07:11:29;;;;;;;;;;;19.70;71.50;;;;;;5075395;28;19969;-58
2021/09/02 07:13:54;;;;;;;;;;;19.70;71.40;;;;;;5078449;28;19913;-59
2021/09/02 07:16:20;;;;;;;;;;;19.70;71.50;;;;;;5079513;28;19912;-57
2021/09/02 07:18:45;;;;;;;;;;;19.80;71.60;;;;;;5072581;28;20406;-56
2021/09/02 07:21:11;;;;;;;;;;;19.70;71.50;;;;;;5065107;28;19981;-63
2021/09/02 07:23:36;;;;;;;;;;;19.80;71.50;;;;;;5071528;28;19956;-58
2021/09/02 07:26:02;;;;;;;;;;;19.80;71.60;;;;;;5084588;28;20288;-61
2021/09/02 07:28:27;;;;;;;;;;;19.70;71.50;;;;;;5069404;28;19912;-61
2021/09/02 07:30:53;;;;;;;;;;;19.70;71.60;;;;;;5067963;28;19939;-58
2021/09/02 07:33:18;;;;;;;;;;;19.70;71.60;;;;;;5079204;28;19920;-58
2021/09/02 07:35:44;;;;;;;;;;;19.70;71.60;;;;;;5070955;28;20284;-62
2021/09/02 07:38:09;;;;;;;;;;;19.70;71.60;;;;;;5073379;28;19957;-61
2021/09/02 07:40:34;;;;;;;;;;;19.70;71.60;;;;;;5072958;28;19912;-62
2021/09/02 07:43:00;;;;;;;;;;;19.80;71.70;;;;;;5066041;28;20388;-63
2021/09/02 07:45:25;;;;;;;;;;;19.70;71.60;;;;;;5081854;28;19912;-54
2021/09/02 07:47:51;;;;;;;;;;;19.70;71.60;;;;;;5063701;28;19919;-55
2021/09/02 07:50:16;;;;;;;;;;;19.70;71.70;;;;;;5067808;28;20318;-61
2021/09/02 07:52:42;;;;;;;;;;;19.70;71.70;;;;;;5072069;28;19920;-57
2021/09/02 07:55:07;;;;;;;;;;;19.70;71.70;;;;;;5063881;28;19916;-53
2021/09/02 07:57:33;;;;;;;;;;;19.70;71.70;;;;;;5067463;28;19923;-57
2021/09/02 07:59:58;;;;;;;;;;;19.70;71.70;;;;;;5074990;28;19918;-56
2021/09/02 08:02:24;;;;;;;;;;;19.70;71.70;;;;;;5080395;28;20357;-55
2021/09/02 08:04:49;;;;;;;;;;;19.70;71.70;;;;;;5068701;28;19916;-58
2021/09/02 08:07:15;;;;;;;;;;;19.70;71.70;;;;;;5065262;28;19923;-53
2021/09/02 08:09:40;;;;;;;;;;;19.70;71.70;;;;;;5072931;28;20430;-55
2021/09/02 08:12:06;;;;;;;;;;;19.70;71.70;;;;;;5070761;28;19968;-57
2021/09/02 08:14:31;;;;;;;;;;;19.70;71.70;;;;;;5079909;28;19920;-55
2021/09/02 08:16:57;;;;;;;;;;;19.70;71.70;;;;;;5068930;28;19916;-62
2021/09/02 08:19:22;;;;;;;;;;;19.70;71.70;;;;;;5074127;28;19913;-58
2021/09/02 08:21:47;;;;;;;;;;;19.70;71.70;;;;;;5056343;28;19916;-61
2021/09/02 08:24:13;;;;;;;;;;;19.70;71.70;;;;;;5083837;28;19916;-60
2021/09/02 08:26:39;;;;;;;;;;;19.70;71.70;;;;;;5069943;28;19999;-57
2021/09/02 08:29:04;;;;;;;;;;;19.70;71.80;;;;;;5073709;28;19919;-59
2021/09/02 08:31:30;;;;;;;;;;;19.70;71.90;;;;;;5076455;28;20213;-57
2021/09/02 08:33:56;;;;;;;;;;;19.60;71.80;;;;;;5063307;28;20389;-58
2021/09/02 08:36:21;;;;;;;;;;;19.70;71.80;;;;;;5079544;28;19913;-57
2021/09/02 08:38:48;;;;;;;;;;;19.60;71.80;;;;;;5073450;28;20562;-59
2021/09/02 08:41:16;;;;;;;;;;;19.70;71.80;;;;;;5061223;28;19928;-58
2021/09/02 08:43:42;;;;;;;;;;;19.70;71.80;;;;;;5069909;28;19920;-60
2021/09/02 08:46:07;;;;;;;;;;;19.70;71.90;;;;;;5078005;28;20591;-62
2021/09/02 08:48:33;;;;;;;;;;;19.70;71.90;;;;;;5077842;28;19920;-52
2021/09/02 08:50:58;;;;;;;;;;;19.60;71.80;;;;;;5076313;28;19917;-56
2021/09/02 08:53:24;;;;;;;;;;;19.60;71.90;;;;;;5070450;28;20446;-56
2021/09/02 08:55:49;;;;;;;;;;;19.60;71.90;;;;;;5071273;28;19916;-60
2021/09/02 08:58:15;;;;;;;;;;;19.60;71.90;;;;;;5059057;28;19920;-54
2021/09/02 09:00:40;;;;;;;;;;;19.60;72.00;;;;;;5070839;28;20305;-56
2021/09/02 09:03:06;;;;;;;;;;;19.60;72.00;;;;;;5072416;28;19913;-52
2021/09/02 09:05:32;;;;;;;;;;;19.60;72.00;;;;;;5072538;28;19920;-58
2021/09/02 09:07:57;;;;;;;;;;;19.70;71.90;;;;;;5060925;28;20392;-59
2021/09/02 09:10:27;;;;;;;;;;;19.60;71.90;;;;;;5062259;28;19999;-60
2021/09/02 09:12:53;;;;;;;;;;;19.60;72.00;;;;;;5067095;28;19916;-62
2021/09/02 09:15:22;;;;;;;;;;;19.60;72.00;;;;;;5077511;28;19920;-61
2021/09/02 09:17:48;;;;;;;;;;;19.60;72.00;;;;;;5070707;28;19987;-58
2021/09/02 09:20:15;;;;;;;;;;;19.70;72.00;;;;;;5075029;28;20007;-62
2021/09/02 09:22:40;;;;;;;;;;;19.60;72.00;;;;;;5075248;28;19916;-63
2021/09/02 09:25:07;;;;;;;;;;;19.60;72.10;;;;;;5070819;28;19918;-59
2021/09/02 09:27:35;;;;;;;;;;;19.60;72.00;;;;;;5064126;28;19989;-58
2021/09/02 09:30:08;;;;;;;;;;;19.60;72.00;;;;;;5066577;28;19913;-58
2021/09/02 09:32:49;;;;;;;;;;;19.60;72.00;;;;;;5070762;28;20426;-59
2021/09/02 09:35:16;;;;;;;;;;;19.60;72.00;;;;;;5057699;28;19924;-60
2021/09/02 09:37:41;;;;;;;;;;;19.60;72.70;;;;;;5087104;28;20219;-60
2021/09/02 09:40:08;;;;;;;;;;;19.60;72.10;;;;;;5073597;28;20592;-61
2021/09/02 09:42:33;;;;;;;;;;;19.60;72.10;;;;;;5073957;28;19967;-57
2021/09/02 09:44:59;;;;;;;;;;;19.60;72.10;;;;;;5077900;28;19916;-54
2021/09/02 09:47:24;;;;;;;;;;;19.60;72.10;;;;;;5071557;28;19913;-56
2021/09/02 09:49:53;;;;;;;;;;;19.60;72.20;;;;;;5071223;28;19913;-54
2021/09/02 09:52:18;;;;;;;;;;;19.60;72.20;;;;;;5079321;22;19931;-62
2021/09/02 09:54:44;;;;;;;;;;;19.60;72.20;;;;;;5097426;27;19912;-62
2021/09/02 09:57:09;;;;;;;;;;;19.60;72.20;;;;;;5092197;27;19933;-63
2021/09/02 09:59:35;;;;;;;;;;;19.60;72.20;;;;;;5097400;27;19911;-61
2021/09/02 10:02:00;;;;;;;;;;;19.60;72.30;;;;;;5095124;27;19920;-62
2021/09/02 10:04:26;;;;;;;;;;;19.60;72.20;;;;;;5097302;27;19916;-61
2021/09/02 10:06:52;;;;;;;;;;;19.60;72.30;;;;;;5096901;27;20376;-61
2021/09/02 10:09:17;;;;;;;;;;;19.60;72.30;;;;;;5096669;27;19919;-62
2021/09/02 10:11:43;;;;;;;;;;;19.60;72.40;;;;;;5096784;28;20335;-61
2021/09/02 10:14:08;;;;;;;;;;;19.60;72.40;;;;;;5096442;28;20285;-62
2021/09/02 10:16:33;;;;;;;;;;;19.60;72.40;;;;;;5098636;27;19919;-62
2021/09/02 10:18:59;;;;;;;;;;;19.60;72.40;;;;;;5098349;27;19919;-61
2021/09/02 10:21:24;;;;;;;;;;;19.60;72.40;;;;;;5096720;27;20327;-63
2021/09/02 10:23:50;;;;;;;;;;;19.60;72.60;;;;;;5099186;27;19911;-62
2021/09/02 10:26:32;;;;;;;;;;;19.60;72.50;;;;;;5097736;27;19912;-62
2021/09/02 10:28:57;;;;;;;;;;;19.50;72.50;;;;;;5098052;27;19915;-63
2021/09/02 10:31:23;;;;;;;;;;;19.60;72.50;;;;;;5098069;27;19969;-62
2021/09/02 10:33:48;;;;;;;;;;;19.60;72.50;;;;;;5098886;27;19916;-61
2021/09/02 10:36:14;;;;;;;;;;;19.60;72.60;;;;;;5098986;27;20396;-61
2021/09/02 10:38:45;;;;;;;;;;;19.60;72.60;;;;;;5100947;27;19911;-62
2021/09/02 10:41:10;;;;;;;;;;;19.60;72.60;;;;;;5101118;27;19912;-62
2021/09/02 10:43:45;;;;;;;;;;;19.50;72.50;;;;;;5094512;27;19912;-62
2021/09/02 10:46:22;;;;;;;;;;;19.60;72.60;;;;;;5102740;27;19919;-63
2021/09/02 10:48:48;;;;;;;;;;;19.50;72.60;;;;;;5102909;27;19916;-63
2021/09/02 10:51:32;;;;;;;;;;;19.50;72.50;;;;;;5102169;27;19980;-62
2021/09/02 10:54:00;;;;;;;;;;;19.60;72.60;;;;;;5122997;27;19919;-61
2021/09/02 10:56:30;;;;;;;;;;;19.50;72.50;;;;;;5122823;27;19958;-61
2021/09/02 10:58:55;;;;;;;;;;;19.50;72.50;;;;;;5123275;27;19920;-60
2021/09/02 11:01:21;;;;;;;;;;;19.50;72.60;;;;;;5123014;27;20315;-62
2021/09/02 11:03:46;;;;;;;;;;;19.50;72.50;;;;;;5122860;27;19939;-61
2021/09/02 11:06:12;;;;;;;;;;;19.50;72.60;;;;;;5124202;27;19919;-62
2021/09/02 11:08:37;;;;;;;;;;;19.50;72.60;;;;;;5103450;27;20524;-62
2021/09/02 11:11:12;;;;;;;;;;;19.50;72.60;;;;;;5122758;27;19911;-62
2021/09/02 11:13:37;;;;;;;;;;;19.60;72.70;;;;;;5104315;27;19916;-61
2021/09/02 11:16:09;;;;;;;;;;;19.50;72.50;;;;;;5123222;27;19918;-62
2021/09/02 11:18:51;;;;;;;;;;;19.50;72.50;;;;;;5122767;27;19912;-62
2021/09/02 11:21:20;;;;;;;;;;;19.50;72.50;;;;;;5103239;27;19973;-61
2021/09/02 11:23:46;;;;;;;;;;;19.50;72.50;;;;;;5122266;27;19911;-62
2021/09/02 11:26:12;;;;;;;;;;;19.50;72.60;;;;;;5122943;27;19919;-63
2021/09/02 11:28:50;;;;;;;;;;;19.50;72.60;;;;;;5121397;27;20092;-63
2021/09/02 11:31:15;;;;;;;;;;;19.50;72.70;;;;;;5122764;27;19922;-61
2021/09/02 11:33:44;;;;;;;;;;;19.50;72.70;;;;;;5122835;27;19916;-62
2021/09/02 11:36:10;;;;;;;;;;;19.50;72.80;;;;;;5105221;27;20022;-61
2021/09/02 11:38:35;;;;;;;;;;;19.60;72.80;;;;;;5122444;27;19958;-61
2021/09/02 11:41:08;;;;;;;;;;;19.50;72.80;;;;;;5122951;27;19916;-61
2021/09/02 11:43:36;;;;;;;;;;;19.50;72.70;;;;;;5104889;27;20291;-61
2021/09/02 11:46:03;;;;;;;;;;;19.50;72.70;;;;;;5101094;27;19919;-62
2021/09/02 11:48:29;;;;;;;;;;;19.50;72.70;;;;;;5098538;27;19926;-61
2021/09/02 11:50:55;;;;;;;;;;;19.50;72.80;;;;;;5122677;27;19915;-61
2021/09/02 11:53:25;;;;;;;;;;;19.50;72.70;;;;;;5122124;27;19976;-61
2021/09/02 11:55:50;;;;;;;;;;;19.50;72.80;;;;;;5122215;27;19950;-61
2021/09/02 11:58:16;;;;;;;;;;;19.50;72.80;;;;;;5121010;27;19913;-62
2021/09/02 12:00:41;;;;;;;;;;;19.50;72.90;;;;;;5104441;27;19916;-61
2021/09/02 12:03:07;;;;;;;;;;;19.50;72.90;;;;;;5121846;27;20291;-61
2021/09/02 12:05:37;;;;;;;;;;;19.50;72.90;;;;;;5121856;27;19935;-61
2021/09/02 12:08:07;;;;;;;;;;;19.50;73.00;;;;;;5121568;27;19912;-62
2021/09/02 12:10:32;;;;;;;;;;;19.50;72.90;;;;;;5120654;27;19918;-62
2021/09/02 12:12:59;;;;;;;;;;;19.50;73.00;;;;;;5120268;27;19920;-62
2021/09/02 12:15:26;;;;;;;;;;;19.50;73.00;;;;;;5103910;27;19968;-61
2021/09/02 12:18:04;;;;;;;;;;;19.50;72.90;;;;;;5103803;27;19921;-62
2021/09/02 12:20:30;;;;;;;;;;;19.50;73.00;;;;;;5121196;27;20732;-62
2021/09/02 12:22:55;;;;;;;;;;;19.50;73.10;;;;;;5120580;27;19919;-63
2021/09/02 12:25:22;;;;;;;;;;;19.50;73.10;;;;;;5103359;27;20587;-62
2021/09/02 12:27:51;;;;;;;;;;;19.50;73.10;;;;;;5121104;27;19920;-62
2021/09/02 12:30:18;;;;;;;;;;;19.50;73.10;;;;;;5121333;27;19918;-62
2021/09/02 12:32:43;;;;;;;;;;;19.50;73.10;;;;;;5121681;27;19922;-62
2021/09/02 12:35:12;;;;;;;;;;;19.50;73.10;;;;;;5121285;27;20584;-62
2021/09/02 12:37:38;;;;;;;;;;;19.50;73.10;;;;;;5120799;27;19912;-62
2021/09/02 12:40:04;;;;;;;;;;;19.50;73.10;;;;;;5121011;27;19912;-63
2021/09/02 12:42:30;;;;;;;;;;;19.50;73.20;;;;;;5102925;27;20401;-62
2021/09/02 12:45:02;;;;;;;;;;;19.50;73.10;;;;;;5121394;27;19912;-61
2021/09/02 12:47:28;;;;;;;;;;;19.50;73.30;;;;;;5120178;27;19937;-61
2021/09/02 12:49:55;;;;;;;;;;;19.50;73.30;;;;;;5120751;27;20295;-61
2021/09/02 12:52:22;;;;;;;;;;;19.50;73.30;;;;;;5120654;27;19923;-61
2021/09/02 12:55:07;;;;;;;;;;;19.50;73.30;;;;;;5121107;27;19967;-63
2021/09/02 12:57:38;;;;;;;;;;;19.50;73.30;;;;;;5120661;27;20528;-62
2021/09/02 13:00:05;;;;;;;;;;;19.50;73.30;;;;;;5120391;27;19923;-61
2021/09/02 13:02:30;;;;;;;;;;;19.50;73.30;;;;;;5121088;27;20423;-62
2021/09/02 13:04:56;;;;;;;;;;;19.50;73.30;;;;;;5120917;27;20041;-61
2021/09/02 13:07:21;;;;;;;;;;;19.50;73.30;;;;;;5120735;27;19912;-62
2021/09/02 13:09:47;;;;;;;;;;;19.50;73.30;;;;;;5120402;27;19918;-62
2021/09/02 13:12:12;;;;;;;;;;;19.50;73.30;;;;;;5120861;27;19971;-61
2021/09/02 13:14:38;;;;;;;;;;;19.50;73.30;;;;;;5120310;27;19922;-63
2021/09/02 13:17:03;;;;;;;;;;;19.50;73.30;;;;;;5120540;27;20376;-63
2021/09/02 13:19:28;;;;;;;;;;;19.50;73.40;;;;;;5119700;27;20302;-63
2021/09/02 13:21:54;;;;;;;;;;;19.50;73.50;;;;;;5119535;27;19916;-62
2021/09/02 13:24:19;;;;;;;;;;;19.50;73.50;;;;;;5120877;27;19918;-62
2021/09/02 13:26:45;;;;;;;;;;;19.50;73.50;;;;;;5120160;27;20360;-60
2021/09/02 13:29:10;;;;;;;;;;;19.60;73.50;;;;;;5120223;27;19912;-63
2021/09/02 13:31:36;;;;;;;;;;;19.60;73.50;;;;;;5120306;27;19919;-62
2021/09/02 13:34:01;;;;;;;;;;;19.50;73.60;;;;;;5119598;27;19959;-63
2021/09/02 13:36:27;;;;;;;;;;;19.60;74.20;;;;;;5120616;27;19911;-63
2021/09/02 13:38:52;;;;;;;;;;;19.60;73.60;;;;;;5100658;27;19960;-61
2021/09/02 13:41:18;;;;;;;;;;;19.50;73.50;;;;;;5120173;27;19938;-62
2021/09/02 13:43:43;;;;;;;;;;;19.60;73.50;;;;;;5120021;27;19911;-62
2021/09/02 13:46:08;;;;;;;;;;;19.60;73.60;;;;;;5119710;27;19915;-62
2021/09/02 13:48:34;;;;;;;;;;;19.60;73.60;;;;;;5119438;27;20445;-62
2021/09/02 13:50:59;;;;;;;;;;;19.60;73.60;;;;;;5119810;27;19915;-62
2021/09/02 13:53:25;;;;;;;;;;;19.50;73.70;;;;;;5120256;27;19920;-62
2021/09/02 13:55:51;;;;;;;;;;;19.60;73.70;;;;;;5120771;27;20299;-61
2021/09/02 13:58:16;;;;;;;;;;;19.60;73.70;;;;;;5118944;27;19911;-61
2021/09/02 14:00:42;;;;;;;;;;;19.50;73.70;;;;;;5120217;27;20613;-62
2021/09/02 14:03:07;;;;;;;;;;;19.60;73.80;;;;;;5119593;27;19968;-61
2021/09/02 14:05:33;;;;;;;;;;;19.50;73.80;;;;;;5119381;27;19916;-62
2021/09/02 14:07:58;;;;;;;;;;;19.60;73.80;;;;;;5119763;27;19919;-62
2021/09/02 14:10:24;;;;;;;;;;;19.60;73.80;;;;;;5119184;27;20433;-61